Time;durP1;ratioP1;P1;durP2;ratioP2;P2;SDS_P1;SDS_P2;PMS_P1;PMS_P2;Temp;Humidity;BMP_temperature;BMP_pressure;BME280_temperature;BME280_humidity;BME280_pressure;Samples;Min_cycle;Max_cycle;Signal;HPM_P1;HPM_P2
2021/10/14 00:00:09;;;;;;;5.05;2.53;;;;;;;19.36;46.19;102422.94;5054182;28;20036;-60
2021/10/14 00:02:34;;;;;;;6.00;2.90;;;;;;;19.31;45.66;102410.81;5036215;28;20478;-60
2021/10/14 00:05:00;;;;;;;7.18;2.70;;;;;;;19.38;46.82;102430.94;5053855;28;20028;-60
2021/10/14 00:07:25;;;;;;;9.65;3.15;;;;;;;19.37;46.14;102423.81;5054190;28;20050;-60
2021/10/14 00:09:50;;;;;;;9.35;2.70;;;;;;;19.33;46.51;102425.97;5054340;28;20029;-60
2021/10/14 00:12:16;;;;;;;7.32;3.10;;;;;;;19.36;46.59;102433.81;5054064;28;20021;-60
2021/10/14 00:14:41;;;;;;;5.55;2.85;;;;;;;19.35;46.63;102425.78;5054096;28;20025;-60
2021/10/14 00:17:06;;;;;;;11.63;3.47;;;;;;;19.36;46.53;102425.66;5054654;28;20466;-60
2021/10/14 00:19:32;;;;;;;12.25;3.00;;;;;;;19.35;46.56;102425.78;5054286;28;20021;-60
2021/10/14 00:21:57;;;;;;;5.65;2.85;;;;;;;19.34;46.65;102419.53;5035593;28;20033;-60
2021/10/14 00:24:22;;;;;;;7.05;2.58;;;;;;;19.33;46.47;102414.22;5055016;28;20025;-60
2021/10/14 00:26:48;;;;;;;8.18;2.80;;;;;;;19.36;46.55;102414.78;5057297;28;20059;-61
2021/10/14 00:29:13;;;;;;;6.35;2.78;;;;;;;19.33;46.36;102420.53;5039348;28;20021;-60
2021/10/14 00:31:38;;;;;;;10.35;2.75;;;;;;;19.31;46.68;102419.81;5063389;28;20033;-60
2021/10/14 00:34:04;;;;;;;6.45;3.25;;;;;;;19.31;46.28;102418.97;5039510;28;20025;-61
2021/10/14 00:36:30;;;;;;;7.22;2.80;;;;;;;19.29;46.42;102412.81;5057129;28;20390;-60
2021/10/14 00:38:55;;;;;;;9.00;3.05;;;;;;;19.29;46.28;102407.38;5072462;28;20055;-60
2021/10/14 00:41:21;;;;;;;8.40;2.70;;;;;;;19.27;45.64;102409.38;5077449;28;20036;-60
2021/10/14 00:43:47;;;;;;;11.60;3.17;;;;;;;19.29;46.47;102404.66;5077464;28;20078;-60
2021/10/14 00:46:16;;;;;;;5.72;3.15;;;;;;;19.29;46.45;102401.97;5075458;28;20021;-60
2021/10/14 00:48:42;;;;;;;5.80;2.58;;;;;;;19.32;46.08;102410.66;5039636;28;20354;-60
2021/10/14 00:51:08;;;;;;;6.00;2.70;;;;;;;19.32;46.27;102404.38;5057631;28;20024;-60
2021/10/14 00:53:36;;;;;;;6.03;2.40;;;;;;;19.29;46.63;102407.38;5057301;28;20029;-60
2021/10/14 00:56:01;;;;;;;6.13;2.63;;;;;;;19.28;45.99;102406.53;5057024;28;20055;-60
2021/10/14 00:58:27;;;;;;;6.90;2.88;;;;;;;19.30;46.38;102403.66;5056986;28;20100;-60
2021/10/14 01:00:52;;;;;;;4.03;2.47;;;;;;;19.31;46.43;102405.38;5056931;28;20417;-60
2021/10/14 01:03:18;;;;;;;8.52;2.83;;;;;;;19.29;46.83;102402.78;5056735;28;20108;-61
2021/10/14 01:05:43;;;;;;;4.60;3.03;;;;;;;19.29;46.04;102401.97;5039151;28;20021;-60
2021/10/14 01:08:08;;;;;;;5.07;2.40;;;;;;;19.27;46.15;102393.06;5056907;28;20027;-60
2021/10/14 01:10:34;;;;;;;8.15;2.80;;;;;;;19.28;46.28;102394.78;5071348;28;20060;-60
2021/10/14 01:12:59;;;;;;;5.47;2.45;;;;;;;19.26;45.98;102400.38;5076592;28;20031;-60
2021/10/14 01:15:26;;;;;;;14.00;2.90;;;;;;;19.26;46.32;102391.38;5058667;28;20020;-61
2021/10/14 01:17:51;;;;;;;5.40;2.22;;;;;;;19.25;46.19;102389.66;5076663;28;20025;-60
2021/10/14 01:20:17;;;;;;;4.88;2.50;;;;;;;19.25;46.33;102393.22;5076494;28;20035;-60
2021/10/14 01:22:42;;;;;;;5.07;2.92;;;;;;;19.25;45.89;102395.09;5076586;28;20024;-60
2021/10/14 01:25:08;;;;;;;7.78;2.22;;;;;;;19.25;45.78;102389.66;5059361;28;20534;-60
2021/10/14 01:27:34;;;;;;;8.77;2.80;;;;;;;19.26;45.83;102385.94;5076790;28;20020;-60
2021/10/14 01:29:59;;;;;;;6.90;2.83;;;;;;;19.20;46.29;102379.25;5058419;28;20381;-60
2021/10/14 01:32:24;;;;;;;6.72;2.60;;;;;;;19.24;45.86;102388.78;5076160;28;20031;-60
2021/10/14 01:34:50;;;;;;;3.03;2.50;;;;;;;19.21;46.21;102388.25;5077062;28;20456;-60
2021/10/14 01:37:15;;;;;;;10.63;2.38;;;;;;;19.21;45.89;102380.09;5057737;28;20080;-60
2021/10/14 01:39:40;;;;;;;4.63;3.05;;;;;;;19.23;45.67;102391.66;5075941;28;20028;-60
2021/10/14 01:42:06;;;;;;;11.95;2.75;;;;;;;19.24;45.92;102382.50;5076059;28;20033;-61
2021/10/14 01:44:31;;;;;;;4.85;2.08;;;;;;;19.24;46.03;102382.50;5076386;28;20053;-60
2021/10/14 01:46:56;;;;;;;3.97;2.28;;;;;;;19.24;46.16;102377.06;5061161;28;20025;-60
2021/10/14 01:49:22;;;;;;;4.22;2.97;;;;;;;19.25;45.75;102385.06;5038119;28;20025;-60
2021/10/14 01:51:47;;;;;;;10.98;2.70;;;;;;;19.25;46.01;102395.09;5056111;28;20040;-60
2021/10/14 01:54:12;;;;;;;5.55;2.55;;;;;;;19.25;46.20;102386.94;5038209;28;20462;-61
2021/10/14 01:56:38;;;;;;;5.85;2.25;;;;;;;19.24;46.22;102388.78;5055869;28;20417;-60
2021/10/14 01:59:03;;;;;;;6.82;2.75;;;;;;;19.24;45.79;102377.91;5056099;28;20025;-60
2021/10/14 02:01:29;;;;;;;6.97;2.50;;;;;;;19.23;45.81;102369.94;5055424;28;20024;-60
2021/10/14 02:03:54;;;;;;;4.03;2.30;;;;;;;19.22;46.16;102373.63;5037824;28;20385;-60
2021/10/14 02:06:19;;;;;;;4.70;2.60;;;;;;;19.18;46.26;102373.94;5055543;28;20151;-61
2021/10/14 02:08:45;;;;;;;5.68;2.65;;;;;;;19.18;46.16;102362.19;5055678;28;20098;-60
2021/10/14 02:11:10;;;;;;;5.53;2.47;;;;;;;18.98;45.92;102331.53;5055519;28;20039;-60
2021/10/14 02:13:36;;;;;;;6.65;2.83;;;;;;;19.06;46.33;102350.69;5054858;28;20017;-60
2021/10/14 02:16:02;;;;;;;5.75;2.55;;;;;;;19.01;46.38;102358.38;5055593;28;20032;-60
2021/10/14 02:18:27;;;;;;;9.23;2.67;;;;;;;18.99;46.27;102354.09;5055210;28;20029;-60
2021/10/14 02:20:52;;;;;;;7.88;2.08;;;;;;;18.93;45.97;102346.53;5055267;28;20051;-60
2021/10/14 02:23:18;;;;;;;7.00;2.58;;;;;;;18.90;46.74;102342.25;5054970;28;20029;-60
2021/10/14 02:25:43;;;;;;;7.72;2.15;;;;;;;18.88;46.23;102348.84;5054909;28;20381;-60
2021/10/14 02:28:08;;;;;;;11.10;2.67;;;;;;;18.85;46.45;102357.28;5055183;28;20473;-60
2021/10/14 02:30:35;;;;;;;7.00;2.60;;;;;;;18.85;46.60;102355.44;5055029;28;20025;-60
2021/10/14 02:33:01;;;;;;;6.47;2.30;;;;;;;18.83;46.01;102346.56;5036976;28;20088;-60
2021/10/14 02:35:27;;;;;;;1.98;1.70;;;;;;;18.86;46.62;102357.16;5055193;28;20064;-60
2021/10/14 02:37:52;;;;;;;8.57;2.60;;;;;;;18.87;46.45;102352.59;5055033;28;20433;-60
2021/10/14 02:40:17;;;;;;;9.32;2.90;;;;;;;18.84;46.22;102353.72;5037338;28;20051;-60
2021/10/14 02:42:43;;;;;;;6.50;2.22;;;;;;;18.84;47.01;102353.72;5054688;28;20029;-61
2021/10/14 02:45:08;;;;;;;10.43;3.28;;;;;;;18.84;46.10;102358.31;5037112;28;20366;-60
2021/10/14 02:47:34;;;;;;;5.63;2.20;;;;;;;18.85;46.75;102360.00;5054468;28;20025;-60
2021/10/14 02:49:59;;;;;;;6.22;2.55;;;;;;;18.87;46.10;102364.28;5036608;28;20028;-60
2021/10/14 02:52:24;;;;;;;8.75;2.80;;;;;;;18.86;46.40;102361.72;5054432;28;20031;-60
2021/10/14 02:54:50;;;;;;;4.97;2.63;;;;;;;18.85;46.22;102360.84;5054774;28;20025;-60
2021/10/14 02:57:15;;;;;;;8.50;2.80;;;;;;;18.85;46.88;102355.44;5053995;28;20110;-60
2021/10/14 02:59:41;;;;;;;5.70;2.92;;;;;;;18.71;45.83;102336.00;5054469;28;20025;-60
2021/10/14 03:02:06;;;;;;;5.65;2.40;;;;;;;18.80;46.90;102349.59;5054342;28;20048;-60
2021/10/14 03:04:31;;;;;;;12.50;3.03;;;;;;;18.78;47.34;102358.88;5054304;28;20032;-60
2021/10/14 03:06:57;;;;;;;8.98;2.88;;;;;;;18.77;46.90;102362.59;5036223;28;20036;-60
2021/10/14 03:09:22;;;;;;;4.60;3.05;;;;;;;18.70;47.14;102354.19;5054224;28;20382;-60
2021/10/14 03:11:47;;;;;;;6.68;3.08;;;;;;;18.69;46.25;102355.16;5054112;28;20111;-60
2021/10/14 03:14:13;;;;;;;6.65;2.85;;;;;;;18.70;47.34;102361.47;5054294;28;20017;-60
2021/10/14 03:16:38;;;;;;;7.40;2.80;;;;;;;18.70;46.97;102356.91;5063095;28;20073;-60
2021/10/14 03:19:03;;;;;;;9.15;2.92;;;;;;;18.71;47.27;102353.16;5074198;28;20024;-60
2021/10/14 03:21:29;;;;;;;8.35;3.30;;;;;;;18.72;46.87;102354.88;5056099;28;20504;-60
2021/10/14 03:23:54;;;;;;;8.95;3.63;;;;;;;18.72;46.84;102357.59;5073992;28;20028;-61
2021/10/14 03:26:20;;;;;;;8.45;3.40;;;;;;;18.71;46.76;102364.00;5073886;28;20025;-60
2021/10/14 03:28:45;;;;;;;7.30;3.50;;;;;;;18.72;47.10;102354.88;5074129;28;20385;-60
2021/10/14 03:31:11;;;;;;;7.32;3.80;;;;;;;18.75;46.67;102367.31;5074061;28;20029;-60
2021/10/14 03:33:36;;;;;;;13.80;4.10;;;;;;;18.74;47.01;102366.44;5056158;28;20027;-60
2021/10/14 03:36:02;;;;;;;13.65;3.75;;;;;;;18.70;47.10;102362.31;5074162;28;20024;-60
2021/10/14 03:38:28;;;;;;;6.95;3.53;;;;;;;18.70;46.88;102367.75;5074395;28;20388;-60
2021/10/14 03:40:53;;;;;;;7.70;4.13;;;;;;;18.69;47.24;102368.75;5074247;28;20028;-60
2021/10/14 03:43:19;;;;;;;4.10;3.15;;;;;;;18.66;47.01;102366.31;5073963;28;20037;-60
2021/10/14 03:45:44;;;;;;;8.02;4.00;;;;;;;18.64;47.04;102357.47;5073824;28;20107;-60
2021/10/14 03:48:10;;;;;;;6.10;3.20;;;;;;;18.64;47.34;102362.91;5074032;28;20035;-60
2021/10/14 03:50:35;;;;;;;10.38;4.00;;;;;;;18.59;47.74;102360.59;5055983;28;20024;-60
2021/10/14 03:53:01;;;;;;;9.65;3.90;;;;;;;18.59;47.76;102351.63;5073735;28;20025;-60
2021/10/14 03:55:26;;;;;;;10.35;3.75;;;;;;;18.47;47.83;102333.72;5074799;28;20066;-61
2021/10/14 03:57:51;;;;;;;10.93;4.43;;;;;;;18.56;47.55;102354.63;5056139;28;20024;-60
2021/10/14 04:00:17;;;;;;;11.20;5.00;;;;;;;18.54;47.49;102356.59;5059174;28;20025;-60
2021/10/14 04:02:42;;;;;;;11.63;5.07;;;;;;;18.53;46.89;102353.06;5060009;28;20431;-60
2021/10/14 04:05:08;;;;;;;8.88;4.45;;;;;;;18.49;47.88;102356.19;5059956;28;20500;-60
2021/10/14 04:07:33;;;;;;;23.27;5.53;;;;;;;18.50;47.53;102349.75;5077927;28;20051;-60
2021/10/14 04:09:59;;;;;;;11.82;6.05;;;;;;;18.47;47.43;102355.44;5077851;28;20035;-60
2021/10/14 04:12:24;;;;;;;9.85;5.07;;;;;;;18.43;47.40;102345.84;5077659;28;20017;-60
2021/10/14 04:14:50;;;;;;;11.13;4.57;;;;;;;18.44;47.34;102355.72;5059941;28;20021;-60
2021/10/14 04:17:15;;;;;;;11.45;5.30;;;;;;;18.43;47.18;102343.13;5077708;28;20475;-60
2021/10/14 04:19:41;;;;;;;13.25;5.00;;;;;;;18.41;47.69;102342.44;5077530;28;20029;-60
2021/10/14 04:22:06;;;;;;;12.18;5.47;;;;;;;18.42;47.89;102346.88;5077407;28;20028;-60
2021/10/14 04:24:32;;;;;;;13.32;5.13;;;;;;;18.42;47.40;102336.00;5077434;28;20492;-60
2021/10/14 04:26:58;;;;;;;14.07;6.05;;;;;;;18.39;47.43;102337.16;5077586;28;20111;-60
2021/10/14 04:29:23;;;;;;;14.13;5.65;;;;;;;18.42;47.69;102342.31;5077270;28;20437;-60
2021/10/14 04:31:49;;;;;;;16.45;5.57;;;;;;;18.43;47.64;102340.41;5077018;28;20036;-60
2021/10/14 04:34:15;;;;;;;14.95;5.63;;;;;;;18.40;47.64;102335.28;5059140;28;20021;-60
2021/10/14 04:36:41;;;;;;;14.05;5.60;;;;;;;18.39;48.22;102344.44;5077105;28;20024;-60
2021/10/14 04:39:06;;;;;;;11.60;5.50;;;;;;;18.35;47.27;102341.16;5077216;28;20035;-61
2021/10/14 04:41:33;;;;;;;13.05;4.93;;;;;;;18.32;48.17;102343.28;5077473;28;20033;-60
2021/10/14 04:43:58;;;;;;;10.68;5.32;;;;;;;18.27;47.45;102332.88;5076814;28;20029;-60
2021/10/14 04:46:24;;;;;;;15.90;6.03;;;;;;;18.29;48.24;102338.13;5042467;28;20055;-60
2021/10/14 04:48:49;;;;;;;15.20;5.70;;;;;;;18.26;47.85;102335.69;5076562;28;20112;-60
2021/10/14 04:51:14;;;;;;;10.75;5.93;;;;;;;18.27;48.32;102342.84;5077056;28;20031;-60
2021/10/14 04:53:40;;;;;;;12.70;5.90;;;;;;;18.23;48.25;102336.03;5076635;28;20103;-60
2021/10/14 04:56:05;;;;;;;12.45;6.03;;;;;;;18.22;48.00;102329.72;5076762;28;20555;-60
2021/10/14 04:58:31;;;;;;;16.95;5.72;;;;;;;18.19;48.26;102323.72;5076622;28;20056;-60
2021/10/14 05:00:56;;;;;;;16.15;6.68;;;;;;;18.19;47.68;102332.72;5058974;28;20081;-60
2021/10/14 05:03:22;;;;;;;16.02;6.57;;;;;;;18.22;48.58;102334.28;5076697;28;20039;-60
2021/10/14 05:05:47;;;;;;;16.52;6.20;;;;;;;18.22;48.97;102334.28;5077450;28;20451;-60
2021/10/14 05:08:13;;;;;;;22.38;7.38;;;;;;;18.22;47.82;102340.59;5058975;28;20029;-60
2021/10/14 05:10:38;;;;;;;17.25;7.05;;;;;;;18.20;47.94;102331.69;5075314;28;20370;-60
2021/10/14 05:13:07;;;;;;;16.40;7.63;;;;;;;18.18;47.96;102330.13;5042181;28;20380;-60
2021/10/14 05:15:32;;;;;;;12.32;7.25;;;;;;;18.11;48.89;102327.16;5059951;28;20025;-60
2021/10/14 05:18:04;;;;;;;19.67;6.97;;;;;;;18.15;47.94;102325.84;5077657;28;20039;-61
2021/10/14 05:20:30;;;;;;;15.32;6.72;;;;;;;18.13;48.00;102329.72;5044555;28;20036;-61
2021/10/14 05:22:55;;;;;;;21.83;7.63;;;;;;;18.08;48.26;102321.16;5076171;28;20035;-60
2021/10/14 05:25:20;;;;;;;17.80;6.65;;;;;;;18.04;48.31;102320.56;5058098;28;20024;-60
2021/10/14 05:27:46;;;;;;;16.67;6.95;;;;;;;18.06;48.82;102328.56;5076190;28;20035;-60
2021/10/14 05:30:11;;;;;;;17.05;7.32;;;;;;;18.08;48.46;102332.00;5058390;28;20060;-60
2021/10/14 05:32:37;;;;;;;14.30;6.57;;;;;;;18.08;48.91;102332.84;5076054;28;20021;-60
2021/10/14 05:35:02;;;;;;;21.90;7.15;;;;;;;18.04;48.88;102326.84;5075969;28;20028;-60
2021/10/14 05:37:28;;;;;;;15.73;6.20;;;;;;;18.03;48.32;102329.72;5075863;28;20537;-60
2021/10/14 05:39:54;;;;;;;16.30;6.93;;;;;;;17.98;48.86;102321.13;5075940;28;20028;-60
2021/10/14 05:42:19;;;;;;;15.20;6.43;;;;;;;18.01;48.05;102326.25;5058078;28;20078;-60
2021/10/14 05:44:44;;;;;;;15.35;7.20;;;;;;;18.00;48.18;102325.44;5076003;28;20112;-61
2021/10/14 05:47:10;;;;;;;15.00;6.85;;;;;;;18.01;47.99;102327.13;5075885;28;20074;-60
2021/10/14 05:49:35;;;;;;;13.95;7.18;;;;;;;18.02;48.22;102326.16;5075725;28;20028;-60
2021/10/14 05:52:00;;;;;;;16.05;6.88;;;;;;;18.00;49.30;102322.72;5075298;28;20046;-61
2021/10/14 05:54:26;;;;;;;13.13;6.35;;;;;;;18.03;49.39;102329.72;5075577;28;20051;-60
2021/10/14 05:56:51;;;;;;;12.75;6.30;;;;;;;18.01;48.72;102332.56;5075258;28;20584;-60
2021/10/14 05:59:16;;;;;;;16.08;5.85;;;;;;;17.99;48.81;102329.13;5075509;28;20395;-60
2021/10/14 06:01:42;;;;;;;13.02;6.03;;;;;;;17.94;49.39;102331.41;5075055;28;20032;-60
2021/10/14 06:04:07;;;;;;;17.42;6.18;;;;;;;17.93;49.46;102328.81;5075175;28;20025;-60
2021/10/14 06:06:33;;;;;;;18.85;6.45;;;;;;;17.91;48.99;102330.81;5075396;28;20115;-60
2021/10/14 06:08:58;;;;;;;14.15;6.97;;;;;;;17.90;49.11;102324.53;5076294;28;20115;-61
2021/10/14 06:11:23;;;;;;;16.70;5.30;;;;;;;17.87;48.75;102322.09;5060386;28;20572;-61
2021/10/14 06:13:49;;;;;;;16.27;5.88;;;;;;;17.93;49.31;102326.13;5039813;28;20051;-60
2021/10/14 06:16:14;;;;;;;10.18;5.68;;;;;;;17.94;48.97;102331.41;5035401;28;20363;-61
2021/10/14 06:18:40;;;;;;;15.93;6.40;;;;;;;17.93;49.11;102324.25;5036151;28;20398;-60
2021/10/14 06:21:06;;;;;;;12.02;6.20;;;;;;;17.95;49.68;102327.69;5040060;28;20040;-61
2021/10/14 06:23:31;;;;;;;14.57;5.85;;;;;;;17.93;49.17;102324.25;5054562;28;20032;-61
2021/10/14 06:25:58;;;;;;;16.77;6.03;;;;;;;17.96;49.31;102324.00;5055028;28;20028;-60
2021/10/14 06:28:23;;;;;;;16.90;6.05;;;;;;;18.00;49.52;102335.41;5054196;28;20385;-61
2021/10/14 06:30:49;;;;;;;19.20;6.75;;;;;;;18.01;48.51;102328.97;5038790;28;20035;-60
2021/10/14 06:33:15;;;;;;;13.77;5.97;;;;;;;18.02;49.19;102323.44;5049575;28;20056;-61
2021/10/14 06:35:40;;;;;;;15.38;5.43;;;;;;;18.02;48.86;102322.56;5055397;28;20039;-60
2021/10/14 06:38:06;;;;;;;11.70;5.72;;;;;;;18.02;49.47;102323.44;5055377;28;20025;-60
2021/10/14 06:40:32;;;;;;;13.20;6.50;;;;;;;18.04;49.27;102328.69;5054994;28;20469;-60
2021/10/14 06:42:57;;;;;;;13.18;5.72;;;;;;;18.07;49.64;102325.72;5020799;28;20501;-60
2021/10/14 06:45:23;;;;;;;17.40;6.25;;;;;;;18.07;49.46;102331.13;5055394;28;20021;-60
2021/10/14 06:47:48;;;;;;;16.63;6.30;;;;;;;18.06;48.87;102324.00;5055002;28;20024;-61
2021/10/14 06:50:14;;;;;;;12.38;5.50;;;;;;;18.12;49.60;102328.00;5054879;28;20492;-60
2021/10/14 06:52:39;;;;;;;19.80;5.78;;;;;;;18.14;49.55;102326.00;5063615;28;20377;-59
2021/10/14 06:55:05;;;;;;;14.30;5.97;;;;;;;18.13;49.59;102314.31;5033759;28;20029;-59
2021/10/14 06:57:30;;;;;;;13.00;5.65;;;;;;;18.19;48.48;102329.16;5054030;28;20049;-59
2021/10/14 06:59:55;;;;;;;14.77;5.22;;;;;;;18.20;48.90;102325.44;5054672;28;20094;-59
2021/10/14 07:02:21;;;;;;;17.92;5.55;;;;;;;18.18;48.55;102324.72;5054182;28;20023;-59
2021/10/14 07:04:46;;;;;;;14.43;5.72;;;;;;;18.20;49.00;102325.44;5054332;28;20029;-59
2021/10/14 07:07:12;;;;;;;15.13;5.68;;;;;;;18.21;49.18;102328.00;5041938;28;20025;-59
2021/10/14 07:09:37;;;;;;;11.00;5.45;;;;;;;18.21;49.92;102321.72;5042832;28;20033;-59
2021/10/14 07:12:10;;;;;;;10.98;5.15;;;;;;;18.22;49.97;102323.44;5044105;28;20068;-59
2021/10/14 07:14:39;;;;;;;11.73;5.65;;;;;;;18.22;49.07;102318.88;5034490;28;20025;-59
2021/10/14 07:17:05;;;;;;;16.95;5.72;;;;;;;18.26;49.47;102325.72;5016716;28;20075;-59
2021/10/14 07:19:30;;;;;;;12.85;5.18;;;;;;;18.21;49.29;102319.00;5034377;28;20025;-60
2021/10/14 07:21:56;;;;;;;11.43;5.13;;;;;;;18.21;49.21;102322.56;5044113;28;20389;-59
2021/10/14 07:24:21;;;;;;;9.65;5.78;;;;;;;18.19;48.80;102324.59;5036491;28;20363;-59
2021/10/14 07:26:47;;;;;;;13.30;5.45;;;;;;;18.21;49.37;102321.72;5034466;28;20057;-60
2021/10/14 07:29:12;;;;;;;12.85;5.57;;;;;;;18.21;49.11;102316.28;5034156;28;20083;-59
2021/10/14 07:31:38;;;;;;;13.02;5.25;;;;;;;18.25;49.66;102312.31;5034648;28;20053;-59
2021/10/14 07:34:04;;;;;;;11.38;5.72;;;;;;;18.28;49.33;102317.44;5038134;28;20028;-59
2021/10/14 07:36:29;;;;;;;17.30;5.85;;;;;;;18.30;49.23;102316.31;5043932;28;20100;-60
2021/10/14 07:38:55;;;;;;;13.90;5.10;;;;;;;18.35;49.16;102321.28;5053887;28;20025;-60
2021/10/14 07:41:20;;;;;;;18.63;6.32;;;;;;;18.39;48.97;102320.03;5048355;28;20025;-59
2021/10/14 07:43:46;;;;;;;10.38;5.35;;;;;;;18.43;48.58;102321.44;5032941;28;20037;-59
2021/10/14 07:46:11;;;;;;;12.00;5.45;;;;;;;18.42;48.74;102319.75;5054299;28;20029;-59
2021/10/14 07:48:37;;;;;;;9.40;5.22;;;;;;;18.50;48.79;102322.63;5054415;28;20397;-59
2021/10/14 07:51:03;;;;;;;12.65;5.35;;;;;;;18.50;49.06;102317.19;5036235;28;20028;-59
2021/10/14 07:53:29;;;;;;;14.00;5.80;;;;;;;18.53;48.61;102320.47;5054274;28;20032;-59
2021/10/14 07:55:54;;;;;;;10.38;5.15;;;;;;;18.58;48.42;102322.75;5036591;28;20178;-59
2021/10/14 07:58:19;;;;;;;13.30;5.40;;;;;;;18.59;48.70;102316.34;5054185;28;20021;-59
2021/10/14 08:00:45;;;;;;;12.27;4.72;;;;;;;18.63;49.12;102327.72;5054494;28;20024;-59
2021/10/14 08:03:11;;;;;;;7.93;4.55;;;;;;;18.67;48.55;102334.59;5054171;28;20040;-59
2021/10/14 08:05:36;;;;;;;12.95;5.13;;;;;;;18.70;49.02;102329.75;5054313;28;20104;-59
2021/10/14 08:08:02;;;;;;;12.88;6.38;;;;;;;18.72;48.32;102333.16;5054307;28;20082;-60
2021/10/14 08:10:28;;;;;;;12.52;5.18;;;;;;;18.76;49.35;102331.84;5036177;28;20070;-59
2021/10/14 08:12:53;;;;;;;12.43;5.88;;;;;;;18.77;48.77;102330.88;5053962;28;20032;-59
2021/10/14 08:15:19;;;;;;;13.95;5.30;;;;;;;18.80;48.44;102332.44;5053817;28;20036;-59
2021/10/14 08:17:44;;;;;;;13.70;4.53;;;;;;;18.83;48.40;102329.41;5054283;28;20021;-59
2021/10/14 08:20:10;;;;;;;10.15;4.72;;;;;;;18.85;48.61;102321.97;5054234;28;20033;-59
2021/10/14 08:22:36;;;;;;;14.02;5.88;;;;;;;18.93;48.82;102331.09;5053991;28;20025;-60
2021/10/14 08:25:06;;;;;;;11.82;4.00;;;;;;;18.97;48.38;102335.25;5053545;28;20033;-59
2021/10/14 08:27:32;;;;;;;9.50;3.78;;;;;;;19.06;48.40;102336.25;5036411;28;20032;-59
2021/10/14 08:29:57;;;;;;;9.70;4.90;;;;;;;19.05;48.55;102332.66;5053994;28;20025;-59
2021/10/14 08:32:22;;;;;;;10.65;3.92;;;;;;;19.08;48.79;102329.66;5053987;28;20382;-59
2021/10/14 08:34:48;;;;;;;9.52;5.50;;;;;;;19.13;48.64;102331.91;5053849;28;20047;-59
2021/10/14 08:37:20;;;;;;;8.25;4.25;;;;;;;19.13;48.72;102330.06;5053918;28;20060;-60
2021/10/14 08:39:46;;;;;;;10.52;3.92;;;;;;;19.19;48.42;102337.63;5053867;28;20100;-59
2021/10/14 08:42:11;;;;;;;11.40;4.50;;;;;;;19.23;48.17;102327.31;5053864;28;20163;-59
2021/10/14 08:44:36;;;;;;;10.18;3.70;;;;;;;19.24;48.14;102317.28;5036638;28;20062;-59
2021/10/14 08:47:02;;;;;;;8.98;4.10;;;;;;;19.26;48.35;102324.31;5039699;28;20107;-60
2021/10/14 08:49:27;;;;;;;13.35;4.07;;;;;;;19.26;48.00;102320.72;5057414;28;20032;-60
2021/10/14 08:51:53;;;;;;;13.88;3.28;;;;;;;19.29;48.40;102325.88;5057375;28;20386;-60
2021/10/14 08:54:18;;;;;;;7.85;3.60;;;;;;;19.30;48.38;102327.56;5057541;28;20025;-59
2021/10/14 08:56:48;;;;;;;9.30;3.50;;;;;;;19.37;48.24;102332.28;5057261;28;20103;-60
2021/10/14 08:59:33;;;;;;;8.73;3.60;;;;;;;19.39;47.90;102332.13;5042660;28;20033;-60
2021/10/14 09:02:07;;;;;;;9.15;4.13;;;;;;;19.40;48.22;102325.72;5037555;28;20047;-59
2021/10/14 09:04:38;;;;;;;6.97;3.10;;;;;;;19.40;48.26;102323.00;5019322;28;20026;-60
2021/10/14 09:07:12;;;;;;;7.35;3.55;;;;;;;19.42;48.17;102318.25;5019568;28;20452;-59
2021/10/14 09:09:38;;;;;;;7.57;3.38;;;;;;;19.46;48.00;102304.19;5036058;28;20025;-59
2021/10/14 09:12:07;;;;;;;4.93;3.22;;;;;;;19.54;47.73;102317.06;5037279;28;20032;-59
2021/10/14 09:14:33;;;;;;;8.38;3.25;;;;;;;19.60;47.83;102308.28;5036891;28;20113;-59
2021/10/14 09:16:59;;;;;;;11.45;3.72;;;;;;;19.68;47.55;102313.84;5036866;28;20033;-59
2021/10/14 09:19:25;;;;;;;11.07;4.78;;;;;;;19.73;47.75;102308.78;5037371;28;20025;-60
2021/10/14 09:21:59;;;;;;;11.45;3.28;;;;;;;19.77;47.67;102299.31;5037179;28;20075;-60
2021/10/14 09:24:24;;;;;;;5.60;3.28;;;;;;;19.82;47.63;102302.41;5036541;28;20060;-59
2021/10/14 09:26:50;;;;;;;8.15;3.13;;;;;;;19.83;47.63;102298.69;5036952;28;20034;-59
2021/10/14 09:29:16;;;;;;;14.25;3.42;;;;;;;19.88;47.70;102307.25;5018684;28;20136;-60
2021/10/14 09:31:50;;;;;;;9.23;3.95;;;;;;;19.93;47.68;102302.22;5036510;28;20018;-59
2021/10/14 09:34:25;;;;;;;10.27;3.75;;;;;;;19.97;47.80;102295.44;5019106;28;20024;-59
2021/10/14 09:36:50;;;;;;;9.23;3.85;;;;;;;20.02;47.57;102301.28;5036643;28;20029;-59
2021/10/14 09:39:16;;;;;;;8.55;3.05;;;;;;;20.03;47.10;102293.97;5018755;28;20032;-60
2021/10/14 09:41:43;;;;;;;11.18;3.17;;;;;;;20.09;47.25;102299.66;5018742;28;20036;-59
2021/10/14 09:44:17;;;;;;;8.20;3.40;;;;;;;20.14;47.40;102302.78;5036423;28;20633;-60
2021/10/14 09:46:46;;;;;;;8.70;3.95;;;;;;;20.18;47.68;102295.97;5036487;28;20026;-60
2021/10/14 09:49:23;;;;;;;7.82;4.00;;;;;;;20.12;47.60;102283.03;5036393;28;20025;-60
2021/10/14 09:51:49;;;;;;;6.93;3.65;;;;;;;20.21;47.63;102303.00;5036248;28;20536;-60
2021/10/14 09:54:16;;;;;;;11.90;4.65;;;;;;;20.23;47.46;102301.84;5036463;28;20017;-59
2021/10/14 09:56:41;;;;;;;10.73;4.07;;;;;;;20.28;47.64;102299.53;5035332;28;20052;-59
2021/10/14 09:59:07;;;;;;;11.10;4.00;;;;;;;20.32;47.69;102300.91;5035928;28;20397;-59
2021/10/14 10:01:39;;;;;;;8.90;3.42;;;;;;;20.35;47.76;102307.06;5052576;28;20031;-60
2021/10/14 10:04:04;;;;;;;11.98;3.40;;;;;;;20.36;47.54;102306.03;5055727;28;20021;-59
2021/10/14 10:06:32;;;;;;;8.77;3.72;;;;;;;20.38;47.28;102295.88;5055965;28;20025;-59
2021/10/14 10:09:16;;;;;;;8.98;3.88;;;;;;;20.41;47.36;102298.28;5055619;28;20017;-59
2021/10/14 10:11:49;;;;;;;11.05;4.13;;;;;;;20.45;46.91;102296.94;5037973;28;20025;-59
2021/10/14 10:14:15;;;;;;;11.27;3.88;;;;;;;20.49;46.85;102301.91;5037268;28;20025;-60
2021/10/14 10:17:07;;;;;;;11.38;4.40;;;;;;;20.55;47.22;102293.13;5055262;28;20035;-60
2021/10/14 10:19:49;;;;;;;11.85;3.78;;;;;;;20.62;47.53;102298.78;5037306;28;20033;-59
2021/10/14 10:22:33;;;;;;;11.30;4.43;;;;;;;20.67;47.17;102294.56;5055115;28;20039;-60
2021/10/14 10:25:15;;;;;;;12.20;4.03;;;;;;;20.70;47.05;102298.84;5055308;28;20027;-59
2021/10/14 10:27:40;;;;;;;9.17;3.93;;;;;;;20.79;47.64;102292.44;5055288;28;20028;-60
2021/10/14 10:30:06;;;;;;;6.88;4.25;;;;;;;20.83;47.18;102291.09;5055195;28;20269;-60
2021/10/14 10:32:41;;;;;;;8.43;3.92;;;;;;;21.00;47.37;102290.19;5055365;28;20017;-60
2021/10/14 10:35:07;;;;;;;9.25;4.18;;;;;;;21.11;46.92;102292.66;5055203;28;20032;-60
2021/10/14 10:37:45;;;;;;;7.90;3.92;;;;;;;21.23;46.79;102291.38;5054545;28;20022;-59
2021/10/14 10:40:25;;;;;;;9.57;4.32;;;;;;;21.37;46.20;102288.03;5034764;28;20033;-59
2021/10/14 10:43:11;;;;;;;11.27;4.78;;;;;;;21.47;46.85;102282.44;5034876;28;20104;-60
2021/10/14 10:45:53;;;;;;;11.05;4.38;;;;;;;21.56;46.62;102269.69;5034742;28;20022;-61
2021/10/14 10:48:39;;;;;;;11.30;4.20;;;;;;;21.68;46.74;102273.84;5034587;28;20036;-61
2021/10/14 10:51:06;;;;;;;11.63;5.28;;;;;;;21.80;46.22;102273.34;5034600;28;20067;-61
2021/10/14 10:53:44;;;;;;;12.10;4.43;;;;;;;21.95;46.14;102270.84;5034735;28;20025;-61
2021/10/14 10:56:29;;;;;;;11.90;4.90;;;;;;;22.11;46.97;102270.03;5034189;28;20128;-60
2021/10/14 10:58:55;;;;;;;11.25;4.43;;;;;;;22.20;46.09;102272.59;5034354;28;20028;-60
2021/10/14 11:01:20;;;;;;;15.45;5.35;;;;;;;22.32;46.34;102270.38;5033976;28;20059;-60
2021/10/14 11:03:57;;;;;;;16.27;4.63;;;;;;;22.41;45.89;102263.91;5033986;28;20063;-60
2021/10/14 11:06:24;;;;;;;12.52;4.13;;;;;;;22.48;45.50;102257.56;5034166;28;20029;-60
2021/10/14 11:08:50;;;;;;;11.00;4.55;;;;;;;22.57;46.52;102245.63;5032893;28;20119;-60
2021/10/14 11:11:19;;;;;;;7.80;3.63;;;;;;;22.71;45.74;102251.44;5033869;28;20454;-60
2021/10/14 11:13:51;;;;;;;9.35;4.75;;;;;;;22.81;46.30;102252.09;5033640;28;20020;-60
2021/10/14 11:16:17;;;;;;;8.38;4.03;;;;;;;22.94;45.45;102246.94;5033652;28;20033;-60
2021/10/14 11:18:45;;;;;;;9.20;4.65;;;;;;;23.04;45.16;102247.56;5033805;28;20544;-61